sensor_id;sensor_type;location;lat;lon;timestamp;P1;durP1;ratioP1;P2;durP2;ratioP2
5010;SDS011;2524;54.364;10.072;2022-11-22T00:01:13;16.67;;;13.27;;
5010;SDS011;2524;54.364;10.072;2022-11-22T00:03:39;16.07;;;12.87;;
5010;SDS011;2524;54.364;10.072;2022-11-22T00:06:05;17.13;;;13.70;;
5010;SDS011;2524;54.364;10.072;2022-11-22T00:08:30;15.70;;;13.60;;
5010;SDS011;2524;54.364;10.072;2022-11-22T00:10:57;17.93;;;14.17;;
5010;SDS011;2524;54.364;10.072;2022-11-22T00:13:23;18.27;;;13.47;;
5010;SDS011;2524;54.364;10.072;2022-11-22T00:16:01;21.10;;;16.40;;
5010;SDS011;2524;54.364;10.072;2022-11-22T00:18:28;17.33;;;12.97;;
5010;SDS011;2524;54.364;10.072;2022-11-22T00:20:54;14.40;;;12.13;;
5010;SDS011;2524;54.364;10.072;2022-11-22T00:23:20;14.20;;;12.70;;
5010;SDS011;2524;54.364;10.072;2022-11-22T00:25:46;16.47;;;13.67;;
5010;SDS011;2524;54.364;10.072;2022-11-22T00:28:11;16.20;;;13.13;;
5010;SDS011;2524;54.364;10.072;2022-11-22T00:30:37;20.00;;;14.73;;
5010;SDS011;2524;54.364;10.072;2022-11-22T00:33:02;18.03;;;14.13;;
5010;SDS011;2524;54.364;10.072;2022-11-22T00:35:28;21.03;;;15.33;;
5010;SDS011;2524;54.364;10.072;2022-11-22T00:37:54;16.30;;;13.57;;
5010;SDS011;2524;54.364;10.072;2022-11-22T00:40:19;19.07;;;15.20;;
5010;SDS011;2524;54.364;10.072;2022-11-22T00:42:45;19.70;;;15.43;;
5010;SDS011;2524;54.364;10.072;2022-11-22T00:45:11;19.40;;;14.73;;
5010;SDS011;2524;54.364;10.072;2022-11-22T00:47:36;17.57;;;14.50;;
5010;SDS011;2524;54.364;10.072;2022-11-22T00:50:02;26.10;;;16.93;;
5010;SDS011;2524;54.364;10.072;2022-11-22T00:52:29;19.90;;;15.20;;
5010;SDS011;2524;54.364;10.072;2022-11-22T00:54:54;19.97;;;15.53;;
5010;SDS011;2524;54.364;10.072;2022-11-22T00:57:20;19.20;;;14.23;;
5010;SDS011;2524;54.364;10.072;2022-11-22T00:59:46;22.50;;;17.03;;
5010;SDS011;2524;54.364;10.072;2022-11-22T01:02:11;21.93;;;16.77;;
5010;SDS011;2524;54.364;10.072;2022-11-22T01:04:37;21.33;;;16.13;;
5010;SDS011;2524;54.364;10.072;2022-11-22T01:07:03;19.30;;;15.30;;
5010;SDS011;2524;54.364;10.072;2022-11-22T01:09:28;19.17;;;15.37;;
5010;SDS011;2524;54.364;10.072;2022-11-22T01:11:54;18.17;;;14.30;;
5010;SDS011;2524;54.364;10.072;2022-11-22T01:14:19;20.10;;;15.90;;
5010;SDS011;2524;54.364;10.072;2022-11-22T01:16:45;23.33;;;17.10;;
5010;SDS011;2524;54.364;10.072;2022-11-22T01:19:11;18.47;;;14.27;;
5010;SDS011;2524;54.364;10.072;2022-11-22T01:21:37;18.37;;;15.17;;
5010;SDS011;2524;54.364;10.072;2022-11-22T01:24:04;20.17;;;16.00;;
5010;SDS011;2524;54.364;10.072;2022-11-22T01:26:29;19.17;;;16.30;;
5010;SDS011;2524;54.364;10.072;2022-11-22T01:28:56;19.50;;;15.43;;
5010;SDS011;2524;54.364;10.072;2022-11-22T01:31:21;21.37;;;17.20;;
5010;SDS011;2524;54.364;10.072;2022-11-22T01:33:47;19.33;;;15.90;;
5010;SDS011;2524;54.364;10.072;2022-11-22T01:36:13;22.10;;;16.70;;
5010;SDS011;2524;54.364;10.072;2022-11-22T01:38:38;24.03;;;15.80;;
5010;SDS011;2524;54.364;10.072;2022-11-22T01:41:04;20.13;;;14.93;;
5010;SDS011;2524;54.364;10.072;2022-11-22T01:43:29;21.33;;;15.70;;
5010;SDS011;2524;54.364;10.072;2022-11-22T01:45:55;19.87;;;16.13;;
5010;SDS011;2524;54.364;10.072;2022-11-22T01:51:15;18.23;;;15.30;;
5010;SDS011;2524;54.364;10.072;2022-11-22T01:53:44;21.93;;;16.53;;
5010;SDS011;2524;54.364;10.072;2022-11-22T01:56:11;20.00;;;15.53;;
5010;SDS011;2524;54.364;10.072;2022-11-22T01:58:40;18.53;;;14.37;;
5010;SDS011;2524;54.364;10.072;2022-11-22T02:01:08;17.77;;;14.40;;
5010;SDS011;2524;54.364;10.072;2022-11-22T02:03:35;21.20;;;15.77;;
5010;SDS011;2524;54.364;10.072;2022-11-22T02:06:04;19.83;;;15.87;;
5010;SDS011;2524;54.364;10.072;2022-11-22T02:11:11;20.13;;;16.10;;
5010;SDS011;2524;54.364;10.072;2022-11-22T02:13:38;21.50;;;16.37;;
5010;SDS011;2524;54.364;10.072;2022-11-22T02:16:06;18.50;;;14.80;;
5010;SDS011;2524;54.364;10.072;2022-11-22T02:18:34;18.60;;;14.97;;
5010;SDS011;2524;54.364;10.072;2022-11-22T02:21:01;18.60;;;14.73;;
5010;SDS011;2524;54.364;10.072;2022-11-22T02:23:36;19.83;;;16.27;;
5010;SDS011;2524;54.364;10.072;2022-11-22T02:26:12;20.70;;;16.57;;
5010;SDS011;2524;54.364;10.072;2022-11-22T02:28:38;19.57;;;15.37;;
5010;SDS011;2524;54.364;10.072;2022-11-22T02:31:04;20.20;;;15.80;;
5010;SDS011;2524;54.364;10.072;2022-11-22T02:33:30;16.00;;;14.23;;
5010;SDS011;2524;54.364;10.072;2022-11-22T02:35:56;19.40;;;14.20;;
5010;SDS011;2524;54.364;10.072;2022-11-22T02:38:23;17.17;;;14.23;;
5010;SDS011;2524;54.364;10.072;2022-11-22T02:41:05;17.77;;;14.57;;
5010;SDS011;2524;54.364;10.072;2022-11-22T02:43:34;21.27;;;15.57;;
5010;SDS011;2524;54.364;10.072;2022-11-22T02:46:06;19.07;;;14.73;;
5010;SDS011;2524;54.364;10.072;2022-11-22T02:48:34;18.47;;;14.30;;
5010;SDS011;2524;54.364;10.072;2022-11-22T02:51:08;17.97;;;14.60;;
5010;SDS011;2524;54.364;10.072;2022-11-22T02:53:34;21.03;;;16.53;;
5010;SDS011;2524;54.364;10.072;2022-11-22T02:56:00;18.83;;;14.80;;
5010;SDS011;2524;54.364;10.072;2022-11-22T02:58:26;18.53;;;14.87;;
5010;SDS011;2524;54.364;10.072;2022-11-22T03:00:51;20.53;;;16.20;;
5010;SDS011;2524;54.364;10.072;2022-11-22T03:03:17;19.37;;;14.60;;
5010;SDS011;2524;54.364;10.072;2022-11-22T03:05:42;17.63;;;14.57;;
5010;SDS011;2524;54.364;10.072;2022-11-22T03:08:08;17.03;;;13.47;;
5010;SDS011;2524;54.364;10.072;2022-11-22T03:10:34;18.50;;;16.03;;
5010;SDS011;2524;54.364;10.072;2022-11-22T03:13:00;18.17;;;14.23;;
5010;SDS011;2524;54.364;10.072;2022-11-22T03:15:25;19.27;;;15.37;;
5010;SDS011;2524;54.364;10.072;2022-11-22T03:18:00;19.97;;;15.60;;
5010;SDS011;2524;54.364;10.072;2022-11-22T03:20:27;18.30;;;14.83;;
5010;SDS011;2524;54.364;10.072;2022-11-22T03:22:53;18.30;;;14.20;;
5010;SDS011;2524;54.364;10.072;2022-11-22T03:25:19;16.90;;;13.73;;
5010;SDS011;2524;54.364;10.072;2022-11-22T03:27:45;23.07;;;17.20;;
5010;SDS011;2524;54.364;10.072;2022-11-22T03:30:11;22.47;;;16.17;;
5010;SDS011;2524;54.364;10.072;2022-11-22T03:32:37;17.77;;;14.43;;
5010;SDS011;2524;54.364;10.072;2022-11-22T03:35:03;19.27;;;15.43;;
5010;SDS011;2524;54.364;10.072;2022-11-22T03:37:29;20.60;;;16.20;;
5010;SDS011;2524;54.364;10.072;2022-11-22T03:39:54;19.90;;;16.00;;
5010;SDS011;2524;54.364;10.072;2022-11-22T03:42:20;21.63;;;16.57;;
5010;SDS011;2524;54.364;10.072;2022-11-22T03:44:45;18.87;;;15.63;;
5010;SDS011;2524;54.364;10.072;2022-11-22T03:47:11;21.03;;;16.40;;
5010;SDS011;2524;54.364;10.072;2022-11-22T03:49:37;19.90;;;15.83;;
5010;SDS011;2524;54.364;10.072;2022-11-22T03:52:02;19.13;;;14.73;;
5010;SDS011;2524;54.364;10.072;2022-11-22T03:54:28;19.63;;;15.67;;
5010;SDS011;2524;54.364;10.072;2022-11-22T03:56:53;20.87;;;15.90;;
5010;SDS011;2524;54.364;10.072;2022-11-22T03:59:19;18.50;;;15.17;;
5010;SDS011;2524;54.364;10.072;2022-11-22T04:01:45;21.20;;;15.37;;
5010;SDS011;2524;54.364;10.072;2022-11-22T04:04:10;16.87;;;14.40;;
5010;SDS011;2524;54.364;10.072;2022-11-22T04:06:36;17.70;;;14.67;;
5010;SDS011;2524;54.364;10.072;2022-11-22T04:09:02;16.30;;;13.73;;
5010;SDS011;2524;54.364;10.072;2022-11-22T04:11:28;18.70;;;14.90;;
5010;SDS011;2524;54.364;10.072;2022-11-22T04:13:53;16.77;;;14.30;;
5010;SDS011;2524;54.364;10.072;2022-11-22T04:16:38;17.13;;;13.73;;
5010;SDS011;2524;54.364;10.072;2022-11-22T04:19:03;17.20;;;14.03;;
5010;SDS011;2524;54.364;10.072;2022-11-22T04:21:29;17.47;;;14.77;;
5010;SDS011;2524;54.364;10.072;2022-11-22T04:24:07;18.43;;;15.10;;
5010;SDS011;2524;54.364;10.072;2022-11-22T04:26:53;16.47;;;13.40;;
5010;SDS011;2524;54.364;10.072;2022-11-22T04:29:20;17.57;;;14.07;;
5010;SDS011;2524;54.364;10.072;2022-11-22T04:31:47;15.13;;;12.87;;
5010;SDS011;2524;54.364;10.072;2022-11-22T04:34:31;18.07;;;14.87;;
5010;SDS011;2524;54.364;10.072;2022-11-22T04:36:58;18.50;;;15.10;;
5010;SDS011;2524;54.364;10.072;2022-11-22T04:39:24;17.83;;;15.00;;
5010;SDS011;2524;54.364;10.072;2022-11-22T04:41:51;18.80;;;14.80;;
5010;SDS011;2524;54.364;10.072;2022-11-22T04:44:37;19.43;;;15.00;;
5010;SDS011;2524;54.364;10.072;2022-11-22T04:47:06;17.53;;;13.77;;
5010;SDS011;2524;54.364;10.072;2022-11-22T04:49:32;17.90;;;14.17;;
5010;SDS011;2524;54.364;10.072;2022-11-22T04:51:58;13.43;;;11.73;;
5010;SDS011;2524;54.364;10.072;2022-11-22T04:54:42;14.67;;;13.10;;
5010;SDS011;2524;54.364;10.072;2022-11-22T04:57:07;18.50;;;14.60;;
5010;SDS011;2524;54.364;10.072;2022-11-22T04:59:33;16.13;;;13.67;;
5010;SDS011;2524;54.364;10.072;2022-11-22T05:01:58;16.33;;;13.27;;
5010;SDS011;2524;54.364;10.072;2022-11-22T05:04:24;18.00;;;14.37;;
5010;SDS011;2524;54.364;10.072;2022-11-22T05:06:50;16.70;;;14.83;;
5010;SDS011;2524;54.364;10.072;2022-11-22T05:09:15;20.10;;;16.17;;
5010;SDS011;2524;54.364;10.072;2022-11-22T05:11:41;15.30;;;13.37;;
5010;SDS011;2524;54.364;10.072;2022-11-22T05:14:08;23.33;;;15.50;;
5010;SDS011;2524;54.364;10.072;2022-11-22T05:16:34;18.73;;;15.57;;
5010;SDS011;2524;54.364;10.072;2022-11-22T05:18:59;17.87;;;14.37;;
5010;SDS011;2524;54.364;10.072;2022-11-22T05:21:25;18.83;;;14.50;;
5010;SDS011;2524;54.364;10.072;2022-11-22T05:23:52;21.00;;;15.80;;
5010;SDS011;2524;54.364;10.072;2022-11-22T05:26:18;17.57;;;14.50;;
5010;SDS011;2524;54.364;10.072;2022-11-22T05:28:54;17.50;;;14.90;;
5010;SDS011;2524;54.364;10.072;2022-11-22T05:31:23;19.50;;;15.90;;
5010;SDS011;2524;54.364;10.072;2022-11-22T05:33:51;20.03;;;14.70;;
5010;SDS011;2524;54.364;10.072;2022-11-22T05:36:18;17.63;;;14.90;;
5010;SDS011;2524;54.364;10.072;2022-11-22T05:38:44;18.23;;;15.20;;
5010;SDS011;2524;54.364;10.072;2022-11-22T05:41:10;20.10;;;15.83;;
5010;SDS011;2524;54.364;10.072;2022-11-22T05:43:38;17.97;;;15.30;;
5010;SDS011;2524;54.364;10.072;2022-11-22T05:48:33;17.97;;;15.40;;
5010;SDS011;2524;54.364;10.072;2022-11-22T05:51:02;17.03;;;13.90;;
5010;SDS011;2524;54.364;10.072;2022-11-22T05:53:32;19.67;;;14.80;;
5010;SDS011;2524;54.364;10.072;2022-11-22T05:56:06;19.43;;;15.77;;
5010;SDS011;2524;54.364;10.072;2022-11-22T05:58:32;19.13;;;15.40;;
5010;SDS011;2524;54.364;10.072;2022-11-22T06:01:05;19.53;;;15.43;;
5010;SDS011;2524;54.364;10.072;2022-11-22T06:03:32;16.70;;;14.33;;
5010;SDS011;2524;54.364;10.072;2022-11-22T06:05:58;19.67;;;15.53;;
5010;SDS011;2524;54.364;10.072;2022-11-22T06:08:24;19.87;;;15.10;;
5010;SDS011;2524;54.364;10.072;2022-11-22T06:10:49;20.50;;;15.50;;
5010;SDS011;2524;54.364;10.072;2022-11-22T06:13:15;16.53;;;14.00;;
5010;SDS011;2524;54.364;10.072;2022-11-22T06:15:41;16.87;;;13.80;;
5010;SDS011;2524;54.364;10.072;2022-11-22T06:18:06;17.93;;;13.80;;
5010;SDS011;2524;54.364;10.072;2022-11-22T06:20:32;18.60;;;15.23;;
5010;SDS011;2524;54.364;10.072;2022-11-22T06:22:57;20.43;;;15.57;;
5010;SDS011;2524;54.364;10.072;2022-11-22T06:25:23;20.17;;;16.20;;
5010;SDS011;2524;54.364;10.072;2022-11-22T06:27:49;18.70;;;15.83;;
5010;SDS011;2524;54.364;10.072;2022-11-22T06:30:15;16.93;;;13.70;;
5010;SDS011;2524;54.364;10.072;2022-11-22T06:32:41;17.00;;;14.50;;
5010;SDS011;2524;54.364;10.072;2022-11-22T06:35:06;18.13;;;14.23;;
5010;SDS011;2524;54.364;10.072;2022-11-22T06:37:33;17.27;;;13.10;;
5010;SDS011;2524;54.364;10.072;2022-11-22T06:39:58;18.93;;;14.63;;
5010;SDS011;2524;54.364;10.072;2022-11-22T06:42:24;18.10;;;14.57;;
5010;SDS011;2524;54.364;10.072;2022-11-22T06:44:49;18.60;;;14.30;;
5010;SDS011;2524;54.364;10.072;2022-11-22T06:47:15;19.17;;;15.40;;
5010;SDS011;2524;54.364;10.072;2022-11-22T06:49:41;16.90;;;14.57;;
5010;SDS011;2524;54.364;10.072;2022-11-22T06:52:08;14.53;;;12.60;;
5010;SDS011;2524;54.364;10.072;2022-11-22T06:54:34;16.07;;;12.27;;
5010;SDS011;2524;54.364;10.072;2022-11-22T06:56:59;18.13;;;14.40;;
5010;SDS011;2524;54.364;10.072;2022-11-22T06:59:25;19.40;;;15.33;;
5010;SDS011;2524;54.364;10.072;2022-11-22T07:01:51;17.47;;;13.90;;
5010;SDS011;2524;54.364;10.072;2022-11-22T07:04:16;16.80;;;13.00;;
5010;SDS011;2524;54.364;10.072;2022-11-22T07:06:42;19.90;;;16.23;;
5010;SDS011;2524;54.364;10.072;2022-11-22T07:09:08;19.57;;;15.13;;
5010;SDS011;2524;54.364;10.072;2022-11-22T07:11:36;19.17;;;15.17;;
5010;SDS011;2524;54.364;10.072;2022-11-22T07:14:03;22.50;;;17.23;;
5010;SDS011;2524;54.364;10.072;2022-11-22T07:16:29;21.70;;;14.20;;
5010;SDS011;2524;54.364;10.072;2022-11-22T07:18:57;18.43;;;14.67;;
5010;SDS011;2524;54.364;10.072;2022-11-22T07:21:23;18.70;;;14.77;;
5010;SDS011;2524;54.364;10.072;2022-11-22T07:23:50;20.10;;;14.63;;
5010;SDS011;2524;54.364;10.072;2022-11-22T07:26:17;16.87;;;13.60;;
5010;SDS011;2524;54.364;10.072;2022-11-22T07:28:44;17.20;;;14.70;;
5010;SDS011;2524;54.364;10.072;2022-11-22T07:31:11;21.53;;;16.60;;
5010;SDS011;2524;54.364;10.072;2022-11-22T07:33:38;20.50;;;15.07;;
5010;SDS011;2524;54.364;10.072;2022-11-22T07:38:29;21.97;;;15.67;;
5010;SDS011;2524;54.364;10.072;2022-11-22T07:40:58;17.53;;;14.50;;
5010;SDS011;2524;54.364;10.072;2022-11-22T07:43:58;22.13;;;14.30;;
5010;SDS011;2524;54.364;10.072;2022-11-22T07:46:27;21.60;;;16.93;;
5010;SDS011;2524;54.364;10.072;2022-11-22T07:49:00;22.53;;;16.97;;
5010;SDS011;2524;54.364;10.072;2022-11-22T07:51:48;20.20;;;16.10;;
5010;SDS011;2524;54.364;10.072;2022-11-22T07:57:22;18.50;;;14.60;;
5010;SDS011;2524;54.364;10.072;2022-11-22T08:00:00;16.43;;;14.37;;
5010;SDS011;2524;54.364;10.072;2022-11-22T08:02:31;18.93;;;14.30;;
5010;SDS011;2524;54.364;10.072;2022-11-22T08:05:28;20.90;;;16.40;;
5010;SDS011;2524;54.364;10.072;2022-11-22T08:08:07;22.87;;;16.03;;
5010;SDS011;2524;54.364;10.072;2022-11-22T08:10:58;18.10;;;15.27;;
5010;SDS011;2524;54.364;10.072;2022-11-22T08:13:58;20.50;;;16.07;;
5010;SDS011;2524;54.364;10.072;2022-11-22T08:19:29;21.87;;;16.13;;
5010;SDS011;2524;54.364;10.072;2022-11-22T08:22:12;22.50;;;17.50;;
5010;SDS011;2524;54.364;10.072;2022-11-22T08:24:43;20.93;;;16.90;;
5010;SDS011;2524;54.364;10.072;2022-11-22T08:27:14;20.80;;;16.17;;
5010;SDS011;2524;54.364;10.072;2022-11-22T08:29:52;20.20;;;15.93;;
5010;SDS011;2524;54.364;10.072;2022-11-22T08:32:26;22.77;;;16.83;;
5010;SDS011;2524;54.364;10.072;2022-11-22T08:35:03;25.30;;;18.67;;
5010;SDS011;2524;54.364;10.072;2022-11-22T08:37:39;21.60;;;16.60;;
5010;SDS011;2524;54.364;10.072;2022-11-22T08:40:32;22.37;;;16.93;;
5010;SDS011;2524;54.364;10.072;2022-11-22T08:43:13;24.07;;;18.70;;
5010;SDS011;2524;54.364;10.072;2022-11-22T08:46:22;24.80;;;17.87;;
5010;SDS011;2524;54.364;10.072;2022-11-22T08:48:57;23.40;;;17.43;;
5010;SDS011;2524;54.364;10.072;2022-11-22T08:51:41;21.40;;;17.27;;
5010;SDS011;2524;54.364;10.072;2022-11-22T08:54:32;22.73;;;16.70;;
5010;SDS011;2524;54.364;10.072;2022-11-22T08:57:10;24.20;;;18.17;;
5010;SDS011;2524;54.364;10.072;2022-11-22T09:00:07;23.00;;;17.90;;
5010;SDS011;2524;54.364;10.072;2022-11-22T09:03:08;20.03;;;15.97;;
5010;SDS011;2524;54.364;10.072;2022-11-22T09:08:52;20.80;;;15.80;;
5010;SDS011;2524;54.364;10.072;2022-11-22T09:11:23;25.70;;;16.90;;
5010;SDS011;2524;54.364;10.072;2022-11-22T09:14:04;23.90;;;16.90;;
5010;SDS011;2524;54.364;10.072;2022-11-22T09:16:55;26.03;;;18.80;;
5010;SDS011;2524;54.364;10.072;2022-11-22T09:19:39;25.97;;;17.50;;
5010;SDS011;2524;54.364;10.072;2022-11-22T09:22:28;21.67;;;16.43;;
5010;SDS011;2524;54.364;10.072;2022-11-22T09:24:58;22.67;;;16.83;;
5010;SDS011;2524;54.364;10.072;2022-11-22T09:27:24;22.03;;;17.60;;
5010;SDS011;2524;54.364;10.072;2022-11-22T09:30:25;25.80;;;17.60;;
5010;SDS011;2524;54.364;10.072;2022-11-22T09:32:53;21.33;;;15.60;;
5010;SDS011;2524;54.364;10.072;2022-11-22T09:35:19;24.57;;;18.07;;
5010;SDS011;2524;54.364;10.072;2022-11-22T09:37:47;20.83;;;17.03;;
5010;SDS011;2524;54.364;10.072;2022-11-22T09:40:13;23.50;;;17.30;;
5010;SDS011;2524;54.364;10.072;2022-11-22T09:43:13;24.47;;;18.00;;
5010;SDS011;2524;54.364;10.072;2022-11-22T09:51:22;21.23;;;16.70;;
5010;SDS011;2524;54.364;10.072;2022-11-22T09:56:45;23.07;;;18.30;;
5010;SDS011;2524;54.364;10.072;2022-11-22T09:59:42;20.37;;;15.97;;
5010;SDS011;2524;54.364;10.072;2022-11-22T10:05:51;24.40;;;17.50;;
5010;SDS011;2524;54.364;10.072;2022-11-22T10:11:27;20.40;;;15.77;;
5010;SDS011;2524;54.364;10.072;2022-11-22T10:13:56;23.13;;;17.97;;
5010;SDS011;2524;54.364;10.072;2022-11-22T10:16:35;23.30;;;17.97;;
5010;SDS011;2524;54.364;10.072;2022-11-22T10:19:14;25.00;;;18.13;;
5010;SDS011;2524;54.364;10.072;2022-11-22T10:21:44;23.87;;;17.97;;
5010;SDS011;2524;54.364;10.072;2022-11-22T10:24:12;24.70;;;17.50;;
5010;SDS011;2524;54.364;10.072;2022-11-22T10:26:41;24.80;;;18.20;;
5010;SDS011;2524;54.364;10.072;2022-11-22T10:40:21;23.80;;;16.97;;
5010;SDS011;2524;54.364;10.072;2022-11-22T10:45:58;21.17;;;17.40;;
5010;SDS011;2524;54.364;10.072;2022-11-22T10:51:18;22.10;;;16.90;;
5010;SDS011;2524;54.364;10.072;2022-11-22T10:56:25;22.73;;;16.93;;
5010;SDS011;2524;54.364;10.072;2022-11-22T10:59:13;24.40;;;18.73;;
5010;SDS011;2524;54.364;10.072;2022-11-22T11:04:36;27.10;;;18.73;;
5010;SDS011;2524;54.364;10.072;2022-11-22T11:07:04;25.70;;;19.90;;
5010;SDS011;2524;54.364;10.072;2022-11-22T11:09:52;24.87;;;18.30;;
5010;SDS011;2524;54.364;10.072;2022-11-22T11:12:26;25.30;;;17.10;;
5010;SDS011;2524;54.364;10.072;2022-11-22T11:15:12;24.57;;;17.60;;
5010;SDS011;2524;54.364;10.072;2022-11-22T11:17:49;28.00;;;19.57;;
5010;SDS011;2524;54.364;10.072;2022-11-22T11:20:26;23.63;;;18.40;;
5010;SDS011;2524;54.364;10.072;2022-11-22T11:22:55;25.50;;;19.20;;
5010;SDS011;2524;54.364;10.072;2022-11-22T11:25:34;23.30;;;18.20;;
5010;SDS011;2524;54.364;10.072;2022-11-22T11:30:51;23.20;;;17.30;;
5010;SDS011;2524;54.364;10.072;2022-11-22T11:33:24;27.63;;;19.10;;
5010;SDS011;2524;54.364;10.072;2022-11-22T11:36:40;27.37;;;19.50;;
5010;SDS011;2524;54.364;10.072;2022-11-22T11:44:01;26.73;;;18.23;;
5010;SDS011;2524;54.364;10.072;2022-11-22T11:46:31;23.37;;;17.60;;
5010;SDS011;2524;54.364;10.072;2022-11-22T11:49:09;26.00;;;19.03;;
5010;SDS011;2524;54.364;10.072;2022-11-22T11:51:39;26.63;;;19.27;;
5010;SDS011;2524;54.364;10.072;2022-11-22T11:56:58;24.57;;;18.23;;
5010;SDS011;2524;54.364;10.072;2022-11-22T12:02:21;24.80;;;17.37;;
5010;SDS011;2524;54.364;10.072;2022-11-22T12:07:42;26.07;;;18.13;;
5010;SDS011;2524;54.364;10.072;2022-11-22T12:10:25;20.93;;;15.60;;
5010;SDS011;2524;54.364;10.072;2022-11-22T12:12:58;25.87;;;18.57;;
5010;SDS011;2524;54.364;10.072;2022-11-22T12:15:39;28.60;;;20.17;;
5010;SDS011;2524;54.364;10.072;2022-11-22T12:18:26;25.90;;;19.10;;
5010;SDS011;2524;54.364;10.072;2022-11-22T12:21:21;25.30;;;18.17;;
5010;SDS011;2524;54.364;10.072;2022-11-22T12:26:43;26.80;;;18.40;;
5010;SDS011;2524;54.364;10.072;2022-11-22T12:29:10;28.10;;;19.30;;
5010;SDS011;2524;54.364;10.072;2022-11-22T12:31:38;23.63;;;17.57;;
5010;SDS011;2524;54.364;10.072;2022-11-22T12:34:25;26.10;;;18.57;;
5010;SDS011;2524;54.364;10.072;2022-11-22T12:39:47;25.27;;;18.77;;
5010;SDS011;2524;54.364;10.072;2022-11-22T12:42:27;25.30;;;18.67;;
5010;SDS011;2524;54.364;10.072;2022-11-22T12:44:58;27.37;;;18.70;;
5010;SDS011;2524;54.364;10.072;2022-11-22T12:47:30;25.63;;;18.50;;
5010;SDS011;2524;54.364;10.072;2022-11-22T12:50:23;23.70;;;16.97;;
5010;SDS011;2524;54.364;10.072;2022-11-22T12:59:00;29.43;;;19.57;;
5010;SDS011;2524;54.364;10.072;2022-11-22T13:04:20;26.23;;;18.57;;
5010;SDS011;2524;54.364;10.072;2022-11-22T13:09:18;21.87;;;16.47;;
5010;SDS011;2524;54.364;10.072;2022-11-22T13:11:53;28.53;;;20.77;;
5010;SDS011;2524;54.364;10.072;2022-11-22T13:17:05;31.00;;;19.40;;
5010;SDS011;2524;54.364;10.072;2022-11-22T13:19:38;28.00;;;19.90;;
5010;SDS011;2524;54.364;10.072;2022-11-22T13:24:42;24.60;;;17.97;;
5010;SDS011;2524;54.364;10.072;2022-11-22T13:27:33;26.20;;;18.40;;
5010;SDS011;2524;54.364;10.072;2022-11-22T13:30:03;24.83;;;17.77;;
5010;SDS011;2524;54.364;10.072;2022-11-22T13:32:30;28.10;;;19.23;;
5010;SDS011;2524;54.364;10.072;2022-11-22T13:37:31;22.50;;;16.73;;
5010;SDS011;2524;54.364;10.072;2022-11-22T13:40:18;27.10;;;18.20;;
5010;SDS011;2524;54.364;10.072;2022-11-22T13:45:47;23.57;;;17.03;;
5010;SDS011;2524;54.364;10.072;2022-11-22T13:51:06;27.30;;;17.90;;
5010;SDS011;2524;54.364;10.072;2022-11-22T13:53:37;24.27;;;18.27;;
5010;SDS011;2524;54.364;10.072;2022-11-22T14:09:31;30.50;;;18.60;;
5010;SDS011;2524;54.364;10.072;2022-11-22T14:12:22;25.20;;;18.80;;
5010;SDS011;2524;54.364;10.072;2022-11-22T14:20:38;27.07;;;18.87;;
5010;SDS011;2524;54.364;10.072;2022-11-22T14:23:26;23.70;;;16.30;;
5010;SDS011;2524;54.364;10.072;2022-11-22T14:26:09;25.40;;;17.80;;
5010;SDS011;2524;54.364;10.072;2022-11-22T14:32:00;26.53;;;18.03;;
5010;SDS011;2524;54.364;10.072;2022-11-22T14:45:01;27.93;;;19.50;;
5010;SDS011;2524;54.364;10.072;2022-11-22T14:47:37;26.10;;;18.67;;
5010;SDS011;2524;54.364;10.072;2022-11-22T14:50:16;31.13;;;21.37;;
5010;SDS011;2524;54.364;10.072;2022-11-22T14:52:52;31.20;;;20.43;;
5010;SDS011;2524;54.364;10.072;2022-11-22T14:55:23;28.67;;;20.27;;
5010;SDS011;2524;54.364;10.072;2022-11-22T14:57:55;29.97;;;19.93;;
5010;SDS011;2524;54.364;10.072;2022-11-22T15:00:25;27.37;;;19.40;;
5010;SDS011;2524;54.364;10.072;2022-11-22T15:05:49;27.83;;;20.03;;
5010;SDS011;2524;54.364;10.072;2022-11-22T15:11:26;29.17;;;20.17;;
5010;SDS011;2524;54.364;10.072;2022-11-22T15:17:03;23.83;;;17.63;;
5010;SDS011;2524;54.364;10.072;2022-11-22T15:19:35;27.23;;;19.37;;
5010;SDS011;2524;54.364;10.072;2022-11-22T15:22:06;33.27;;;21.80;;
5010;SDS011;2524;54.364;10.072;2022-11-22T15:24:37;27.33;;;18.43;;
5010;SDS011;2524;54.364;10.072;2022-11-22T15:32:42;29.80;;;19.53;;
5010;SDS011;2524;54.364;10.072;2022-11-22T15:35:15;30.70;;;19.47;;
5010;SDS011;2524;54.364;10.072;2022-11-22T15:37:53;30.87;;;19.60;;
5010;SDS011;2524;54.364;10.072;2022-11-22T15:40:39;30.50;;;20.53;;
5010;SDS011;2524;54.364;10.072;2022-11-22T15:43:09;32.30;;;21.70;;
5010;SDS011;2524;54.364;10.072;2022-11-22T15:45:40;36.33;;;21.70;;
5010;SDS011;2524;54.364;10.072;2022-11-22T15:48:11;33.70;;;21.10;;
5010;SDS011;2524;54.364;10.072;2022-11-22T15:50:37;24.97;;;17.43;;
5010;SDS011;2524;54.364;10.072;2022-11-22T15:53:22;24.10;;;17.93;;
5010;SDS011;2524;54.364;10.072;2022-11-22T15:56:03;28.40;;;19.83;;
5010;SDS011;2524;54.364;10.072;2022-11-22T15:58:43;29.63;;;20.80;;
5010;SDS011;2524;54.364;10.072;2022-11-22T16:01:13;32.03;;;21.03;;
5010;SDS011;2524;54.364;10.072;2022-11-22T16:03:40;30.57;;;20.50;;
5010;SDS011;2524;54.364;10.072;2022-11-22T16:06:12;27.87;;;18.63;;
5010;SDS011;2524;54.364;10.072;2022-11-22T16:08:47;30.93;;;20.80;;
5010;SDS011;2524;54.364;10.072;2022-11-22T16:11:18;26.13;;;18.10;;
5010;SDS011;2524;54.364;10.072;2022-11-22T16:13:45;24.97;;;16.53;;
5010;SDS011;2524;54.364;10.072;2022-11-22T16:18:37;31.60;;;20.97;;
5010;SDS011;2524;54.364;10.072;2022-11-22T16:21:04;33.43;;;22.30;;
5010;SDS011;2524;54.364;10.072;2022-11-22T16:23:34;31.57;;;20.50;;
5010;SDS011;2524;54.364;10.072;2022-11-22T16:26:11;28.80;;;19.20;;
5010;SDS011;2524;54.364;10.072;2022-11-22T16:28:43;35.23;;;21.77;;
5010;SDS011;2524;54.364;10.072;2022-11-22T16:33:44;24.20;;;15.80;;
5010;SDS011;2524;54.364;10.072;2022-11-22T16:36:11;27.77;;;18.27;;
5010;SDS011;2524;54.364;10.072;2022-11-22T16:38:38;27.37;;;18.30;;
5010;SDS011;2524;54.364;10.072;2022-11-22T16:41:04;25.63;;;17.50;;
5010;SDS011;2524;54.364;10.072;2022-11-22T16:43:36;23.97;;;17.70;;
5010;SDS011;2524;54.364;10.072;2022-11-22T16:46:01;26.00;;;18.23;;
5010;SDS011;2524;54.364;10.072;2022-11-22T16:48:27;29.57;;;19.47;;
5010;SDS011;2524;54.364;10.072;2022-11-22T16:51:02;26.80;;;19.00;;
5010;SDS011;2524;54.364;10.072;2022-11-22T16:53:33;29.20;;;19.90;;
5010;SDS011;2524;54.364;10.072;2022-11-22T16:56:15;32.17;;;20.77;;
5010;SDS011;2524;54.364;10.072;2022-11-22T16:58:42;26.40;;;18.43;;
5010;SDS011;2524;54.364;10.072;2022-11-22T17:01:09;29.30;;;19.03;;
5010;SDS011;2524;54.364;10.072;2022-11-22T17:03:37;30.90;;;19.87;;
5010;SDS011;2524;54.364;10.072;2022-11-22T17:06:04;34.07;;;21.37;;
5010;SDS011;2524;54.364;10.072;2022-11-22T17:08:29;25.83;;;18.07;;
5010;SDS011;2524;54.364;10.072;2022-11-22T17:10:55;31.47;;;20.90;;
5010;SDS011;2524;54.364;10.072;2022-11-22T17:13:24;32.47;;;20.00;;
5010;SDS011;2524;54.364;10.072;2022-11-22T17:15:52;30.70;;;20.30;;
5010;SDS011;2524;54.364;10.072;2022-11-22T17:18:19;30.20;;;20.57;;
5010;SDS011;2524;54.364;10.072;2022-11-22T17:20:44;36.37;;;23.73;;
5010;SDS011;2524;54.364;10.072;2022-11-22T17:23:12;35.67;;;21.50;;
5010;SDS011;2524;54.364;10.072;2022-11-22T17:25:42;31.67;;;21.77;;
5010;SDS011;2524;54.364;10.072;2022-11-22T17:28:08;39.63;;;21.63;;
5010;SDS011;2524;54.364;10.072;2022-11-22T17:30:34;33.57;;;21.60;;
5010;SDS011;2524;54.364;10.072;2022-11-22T17:32:59;34.53;;;22.13;;